sensor_id;sensor_type;location;lat;lon;timestamp;P1;durP1;ratioP1;P2;durP2;ratioP2
34828;SDS011;21042;47.620;12.188;2023-03-12T00:00:00;8.98;;;4.32;;
34828;SDS011;21042;47.620;12.188;2023-03-12T00:02:33;8.05;;;4.25;;
34828;SDS011;21042;47.620;12.188;2023-03-12T00:05:00;6.68;;;2.80;;
34828;SDS011;21042;47.620;12.188;2023-03-12T00:07:27;8.05;;;4.03;;
34828;SDS011;21042;47.620;12.188;2023-03-12T00:09:53;6.68;;;3.67;;
34828;SDS011;21042;47.620;12.188;2023-03-12T00:12:20;8.13;;;3.75;;
34828;SDS011;21042;47.620;12.188;2023-03-12T00:14:47;9.00;;;3.80;;
34828;SDS011;21042;47.620;12.188;2023-03-12T00:17:14;7.55;;;3.65;;
34828;SDS011;21042;47.620;12.188;2023-03-12T00:19:40;10.23;;;4.28;;
34828;SDS011;21042;47.620;12.188;2023-03-12T00:22:07;8.50;;;3.70;;
34828;SDS011;21042;47.620;12.188;2023-03-12T00:24:34;3.70;;;2.22;;
34828;SDS011;21042;47.620;12.188;2023-03-12T00:27:00;7.10;;;3.53;;
34828;SDS011;21042;47.620;12.188;2023-03-12T00:29:28;7.20;;;3.83;;
34828;SDS011;21042;47.620;12.188;2023-03-12T00:31:54;9.25;;;4.05;;
34828;SDS011;21042;47.620;12.188;2023-03-12T00:34:21;6.35;;;3.78;;
34828;SDS011;21042;47.620;12.188;2023-03-12T00:36:48;6.13;;;2.78;;
34828;SDS011;21042;47.620;12.188;2023-03-12T00:39:14;8.93;;;3.85;;
34828;SDS011;21042;47.620;12.188;2023-03-12T00:41:41;7.60;;;2.75;;
34828;SDS011;21042;47.620;12.188;2023-03-12T00:44:08;6.40;;;4.15;;
34828;SDS011;21042;47.620;12.188;2023-03-12T00:46:35;10.65;;;4.22;;
34828;SDS011;21042;47.620;12.188;2023-03-12T00:49:01;8.80;;;3.88;;
34828;SDS011;21042;47.620;12.188;2023-03-12T00:51:28;5.88;;;3.35;;
34828;SDS011;21042;47.620;12.188;2023-03-12T00:53:55;7.63;;;3.90;;
34828;SDS011;21042;47.620;12.188;2023-03-12T00:56:23;6.32;;;3.67;;
34828;SDS011;21042;47.620;12.188;2023-03-12T00:58:49;5.43;;;2.85;;
34828;SDS011;21042;47.620;12.188;2023-03-12T01:01:16;8.68;;;3.60;;
34828;SDS011;21042;47.620;12.188;2023-03-12T01:03:43;7.57;;;3.95;;
34828;SDS011;21042;47.620;12.188;2023-03-12T01:06:10;6.30;;;3.78;;
34828;SDS011;21042;47.620;12.188;2023-03-12T01:08:37;8.38;;;3.67;;
34828;SDS011;21042;47.620;12.188;2023-03-12T01:11:04;7.00;;;3.30;;
34828;SDS011;21042;47.620;12.188;2023-03-12T01:13:31;8.65;;;4.35;;
34828;SDS011;21042;47.620;12.188;2023-03-12T01:15:58;6.25;;;3.58;;
34828;SDS011;21042;47.620;12.188;2023-03-12T01:18:25;8.93;;;3.97;;
34828;SDS011;21042;47.620;12.188;2023-03-12T01:20:52;6.90;;;3.50;;
34828;SDS011;21042;47.620;12.188;2023-03-12T01:23:19;8.98;;;4.25;;
34828;SDS011;21042;47.620;12.188;2023-03-12T01:25:45;5.32;;;2.28;;
34828;SDS011;21042;47.620;12.188;2023-03-12T01:28:13;6.28;;;3.70;;
34828;SDS011;21042;47.620;12.188;2023-03-12T01:30:40;6.82;;;3.47;;
34828;SDS011;21042;47.620;12.188;2023-03-12T01:33:06;4.95;;;2.75;;
34828;SDS011;21042;47.620;12.188;2023-03-12T01:35:36;6.18;;;3.47;;
34828;SDS011;21042;47.620;12.188;2023-03-12T01:38:05;7.70;;;3.75;;
34828;SDS011;21042;47.620;12.188;2023-03-12T01:40:33;7.53;;;3.63;;
34828;SDS011;21042;47.620;12.188;2023-03-12T01:43:20;6.28;;;3.50;;
34828;SDS011;21042;47.620;12.188;2023-03-12T01:48:42;10.05;;;3.70;;
34828;SDS011;21042;47.620;12.188;2023-03-12T01:51:12;9.27;;;3.90;;
34828;SDS011;21042;47.620;12.188;2023-03-12T01:53:42;7.68;;;3.70;;
34828;SDS011;21042;47.620;12.188;2023-03-12T01:56:12;5.88;;;3.35;;
34828;SDS011;21042;47.620;12.188;2023-03-12T01:58:42;9.23;;;4.07;;
34828;SDS011;21042;47.620;12.188;2023-03-12T02:01:13;6.20;;;3.70;;
34828;SDS011;21042;47.620;12.188;2023-03-12T02:03:43;8.95;;;3.30;;
34828;SDS011;21042;47.620;12.188;2023-03-12T02:06:15;8.35;;;3.50;;
34828;SDS011;21042;47.620;12.188;2023-03-12T02:08:46;5.43;;;3.42;;
34828;SDS011;21042;47.620;12.188;2023-03-12T02:11:13;6.25;;;3.13;;
34828;SDS011;21042;47.620;12.188;2023-03-12T02:13:41;8.32;;;3.50;;
34828;SDS011;21042;47.620;12.188;2023-03-12T02:16:08;6.30;;;3.80;;
34828;SDS011;21042;47.620;12.188;2023-03-12T02:18:35;7.20;;;3.30;;
34828;SDS011;21042;47.620;12.188;2023-03-12T02:24:00;5.70;;;3.80;;
34828;SDS011;21042;47.620;12.188;2023-03-12T02:26:31;4.90;;;3.08;;
34828;SDS011;21042;47.620;12.188;2023-03-12T02:29:01;7.68;;;2.97;;
34828;SDS011;21042;47.620;12.188;2023-03-12T02:31:29;5.45;;;3.25;;
34828;SDS011;21042;47.620;12.188;2023-03-12T02:34:02;7.50;;;3.40;;
34828;SDS011;21042;47.620;12.188;2023-03-12T02:36:29;7.85;;;3.47;;
34828;SDS011;21042;47.620;12.188;2023-03-12T02:38:56;5.20;;;2.67;;
34828;SDS011;21042;47.620;12.188;2023-03-12T02:41:24;9.50;;;4.22;;
34828;SDS011;21042;47.620;12.188;2023-03-12T02:44:01;5.25;;;3.30;;
34828;SDS011;21042;47.620;12.188;2023-03-12T02:46:35;7.07;;;3.70;;
34828;SDS011;21042;47.620;12.188;2023-03-12T02:49:05;6.07;;;3.58;;
34828;SDS011;21042;47.620;12.188;2023-03-12T02:51:32;6.22;;;3.13;;
34828;SDS011;21042;47.620;12.188;2023-03-12T02:53:59;5.55;;;3.55;;
34828;SDS011;21042;47.620;12.188;2023-03-12T02:56:26;5.55;;;3.33;;
34828;SDS011;21042;47.620;12.188;2023-03-12T02:58:54;7.50;;;3.28;;
34828;SDS011;21042;47.620;12.188;2023-03-12T03:01:22;6.32;;;2.92;;
34828;SDS011;21042;47.620;12.188;2023-03-12T03:03:49;7.53;;;3.33;;
34828;SDS011;21042;47.620;12.188;2023-03-12T03:06:16;6.40;;;3.10;;
34828;SDS011;21042;47.620;12.188;2023-03-12T03:11:10;4.40;;;2.70;;
34828;SDS011;21042;47.620;12.188;2023-03-12T03:13:38;7.07;;;2.92;;
34828;SDS011;21042;47.620;12.188;2023-03-12T03:16:05;5.90;;;2.90;;
34828;SDS011;21042;47.620;12.188;2023-03-12T03:18:32;4.80;;;3.08;;
34828;SDS011;21042;47.620;12.188;2023-03-12T03:21:01;4.97;;;3.00;;
34828;SDS011;21042;47.620;12.188;2023-03-12T03:23:33;4.70;;;3.05;;
34828;SDS011;21042;47.620;12.188;2023-03-12T03:26:00;6.82;;;3.75;;
34828;SDS011;21042;47.620;12.188;2023-03-12T03:28:28;9.68;;;3.70;;
34828;SDS011;21042;47.620;12.188;2023-03-12T03:30:56;5.72;;;3.42;;
34828;SDS011;21042;47.620;12.188;2023-03-12T03:33:30;7.90;;;3.38;;
34828;SDS011;21042;47.620;12.188;2023-03-12T03:36:00;7.15;;;3.97;;
34828;SDS011;21042;47.620;12.188;2023-03-12T03:38:31;6.32;;;3.80;;
34828;SDS011;21042;47.620;12.188;2023-03-12T03:40:58;7.35;;;3.67;;
34828;SDS011;21042;47.620;12.188;2023-03-12T03:43:27;8.02;;;3.72;;
34828;SDS011;21042;47.620;12.188;2023-03-12T03:45:58;7.18;;;3.78;;
34828;SDS011;21042;47.620;12.188;2023-03-12T03:48:27;5.65;;;3.35;;
34828;SDS011;21042;47.620;12.188;2023-03-12T03:50:58;6.88;;;3.03;;
34828;SDS011;21042;47.620;12.188;2023-03-12T03:53:29;8.40;;;3.47;;
34828;SDS011;21042;47.620;12.188;2023-03-12T03:55:56;8.00;;;2.92;;
34828;SDS011;21042;47.620;12.188;2023-03-12T03:58:23;5.43;;;3.20;;
34828;SDS011;21042;47.620;12.188;2023-03-12T04:04:08;5.75;;;3.58;;
34828;SDS011;21042;47.620;12.188;2023-03-12T04:06:35;7.68;;;3.65;;
34828;SDS011;21042;47.620;12.188;2023-03-12T04:09:02;6.15;;;3.38;;
34828;SDS011;21042;47.620;12.188;2023-03-12T04:11:31;4.10;;;2.90;;
34828;SDS011;21042;47.620;12.188;2023-03-12T04:13:59;8.23;;;3.55;;
34828;SDS011;21042;47.620;12.188;2023-03-12T04:16:29;10.90;;;3.97;;
34828;SDS011;21042;47.620;12.188;2023-03-12T04:18:56;6.35;;;3.08;;
34828;SDS011;21042;47.620;12.188;2023-03-12T04:21:24;8.65;;;3.88;;
34828;SDS011;21042;47.620;12.188;2023-03-12T04:23:51;5.30;;;2.50;;
34828;SDS011;21042;47.620;12.188;2023-03-12T04:26:21;8.63;;;3.72;;
34828;SDS011;21042;47.620;12.188;2023-03-12T04:28:48;9.30;;;3.60;;
34828;SDS011;21042;47.620;12.188;2023-03-12T04:31:15;6.43;;;3.70;;
34828;SDS011;21042;47.620;12.188;2023-03-12T04:33:48;6.05;;;3.80;;
34828;SDS011;21042;47.620;12.188;2023-03-12T04:36:20;8.15;;;4.20;;
34828;SDS011;21042;47.620;12.188;2023-03-12T04:38:49;5.93;;;3.80;;
34828;SDS011;21042;47.620;12.188;2023-03-12T04:41:20;7.60;;;4.40;;
34828;SDS011;21042;47.620;12.188;2023-03-12T04:43:51;6.97;;;4.32;;
34828;SDS011;21042;47.620;12.188;2023-03-12T04:46:19;8.52;;;4.60;;
34828;SDS011;21042;47.620;12.188;2023-03-12T04:51:14;8.15;;;4.03;;
34828;SDS011;21042;47.620;12.188;2023-03-12T04:53:41;10.30;;;4.57;;
34828;SDS011;21042;47.620;12.188;2023-03-12T04:56:10;6.35;;;3.65;;
34828;SDS011;21042;47.620;12.188;2023-03-12T04:58:37;6.35;;;4.20;;
34828;SDS011;21042;47.620;12.188;2023-03-12T05:01:05;7.32;;;3.92;;
34828;SDS011;21042;47.620;12.188;2023-03-12T05:03:32;5.97;;;3.85;;
34828;SDS011;21042;47.620;12.188;2023-03-12T05:06:00;8.65;;;4.20;;
34828;SDS011;21042;47.620;12.188;2023-03-12T05:08:27;7.70;;;4.15;;
34828;SDS011;21042;47.620;12.188;2023-03-12T05:10:54;13.00;;;3.42;;
34828;SDS011;21042;47.620;12.188;2023-03-12T05:13:22;15.15;;;4.43;;
34828;SDS011;21042;47.620;12.188;2023-03-12T05:15:53;8.75;;;4.18;;
34828;SDS011;21042;47.620;12.188;2023-03-12T05:18:20;9.38;;;4.85;;
34828;SDS011;21042;47.620;12.188;2023-03-12T05:20:57;8.48;;;4.30;;
34828;SDS011;21042;47.620;12.188;2023-03-12T05:23:25;10.20;;;5.00;;
34828;SDS011;21042;47.620;12.188;2023-03-12T05:25:53;10.05;;;5.07;;
34828;SDS011;21042;47.620;12.188;2023-03-12T05:30:55;10.15;;;4.75;;
34828;SDS011;21042;47.620;12.188;2023-03-12T05:33:23;9.52;;;5.35;;
34828;SDS011;21042;47.620;12.188;2023-03-12T05:35:51;8.65;;;4.78;;
34828;SDS011;21042;47.620;12.188;2023-03-12T05:38:18;11.45;;;5.07;;
34828;SDS011;21042;47.620;12.188;2023-03-12T05:40:52;11.85;;;5.35;;
34828;SDS011;21042;47.620;12.188;2023-03-12T05:43:21;10.98;;;5.70;;
34828;SDS011;21042;47.620;12.188;2023-03-12T05:45:49;12.77;;;6.15;;
34828;SDS011;21042;47.620;12.188;2023-03-12T05:48:17;10.82;;;6.38;;
34828;SDS011;21042;47.620;12.188;2023-03-12T05:50:44;13.00;;;6.03;;
34828;SDS011;21042;47.620;12.188;2023-03-12T05:53:11;8.38;;;3.92;;
34828;SDS011;21042;47.620;12.188;2023-03-12T05:55:39;12.30;;;5.70;;
34828;SDS011;21042;47.620;12.188;2023-03-12T05:58:07;9.55;;;5.20;;
34828;SDS011;21042;47.620;12.188;2023-03-12T06:00:36;16.20;;;5.78;;
34828;SDS011;21042;47.620;12.188;2023-03-12T06:03:04;12.05;;;6.35;;
34828;SDS011;21042;47.620;12.188;2023-03-12T06:05:32;13.68;;;6.78;;
34828;SDS011;21042;47.620;12.188;2023-03-12T06:08:00;20.38;;;6.35;;
34828;SDS011;21042;47.620;12.188;2023-03-12T06:10:28;14.27;;;6.28;;
34828;SDS011;21042;47.620;12.188;2023-03-12T06:12:55;13.75;;;6.53;;
34828;SDS011;21042;47.620;12.188;2023-03-12T06:15:22;15.43;;;6.20;;
34828;SDS011;21042;47.620;12.188;2023-03-12T06:17:49;9.98;;;6.22;;
34828;SDS011;21042;47.620;12.188;2023-03-12T06:20:16;12.45;;;4.90;;
34828;SDS011;21042;47.620;12.188;2023-03-12T06:22:43;10.13;;;6.05;;
34828;SDS011;21042;47.620;12.188;2023-03-12T06:25:09;12.88;;;5.95;;
34828;SDS011;21042;47.620;12.188;2023-03-12T06:30:04;15.90;;;6.57;;
34828;SDS011;21042;47.620;12.188;2023-03-12T06:34:58;11.95;;;6.32;;
34828;SDS011;21042;47.620;12.188;2023-03-12T06:37:26;14.52;;;7.03;;
34828;SDS011;21042;47.620;12.188;2023-03-12T06:42:20;11.15;;;6.55;;
34828;SDS011;21042;47.620;12.188;2023-03-12T06:44:48;13.30;;;7.65;;
34828;SDS011;21042;47.620;12.188;2023-03-12T06:47:15;20.40;;;10.30;;
34828;SDS011;21042;47.620;12.188;2023-03-12T06:49:43;14.77;;;8.63;;
34828;SDS011;21042;47.620;12.188;2023-03-12T06:52:09;17.17;;;8.63;;
34828;SDS011;21042;47.620;12.188;2023-03-12T06:54:36;17.20;;;9.82;;
34828;SDS011;21042;47.620;12.188;2023-03-12T06:57:03;15.75;;;5.88;;
34828;SDS011;21042;47.620;12.188;2023-03-12T07:01:57;14.27;;;8.07;;
34828;SDS011;21042;47.620;12.188;2023-03-12T07:04:24;18.83;;;8.73;;
34828;SDS011;21042;47.620;12.188;2023-03-12T07:06:51;14.43;;;8.02;;
34828;SDS011;21042;47.620;12.188;2023-03-12T07:09:17;14.43;;;6.75;;
34828;SDS011;21042;47.620;12.188;2023-03-12T07:11:45;10.02;;;6.22;;
34828;SDS011;21042;47.620;12.188;2023-03-12T07:14:11;12.80;;;6.95;;
34828;SDS011;21042;47.620;12.188;2023-03-12T07:16:38;13.50;;;7.10;;
34828;SDS011;21042;47.620;12.188;2023-03-12T07:19:05;15.93;;;8.27;;
34828;SDS011;21042;47.620;12.188;2023-03-12T07:21:33;12.52;;;5.88;;
34828;SDS011;21042;47.620;12.188;2023-03-12T07:23:59;15.75;;;8.05;;
34828;SDS011;21042;47.620;12.188;2023-03-12T07:26:32;18.70;;;7.75;;
34828;SDS011;21042;47.620;12.188;2023-03-12T07:29:00;17.30;;;7.30;;
34828;SDS011;21042;47.620;12.188;2023-03-12T07:31:28;18.90;;;7.45;;
34828;SDS011;21042;47.620;12.188;2023-03-12T07:33:55;17.55;;;7.53;;
34828;SDS011;21042;47.620;12.188;2023-03-12T07:36:22;16.90;;;7.57;;
34828;SDS011;21042;47.620;12.188;2023-03-12T07:38:49;12.48;;;7.18;;
34828;SDS011;21042;47.620;12.188;2023-03-12T07:41:16;15.10;;;6.85;;
34828;SDS011;21042;47.620;12.188;2023-03-12T07:43:42;11.10;;;5.22;;
34828;SDS011;21042;47.620;12.188;2023-03-12T07:46:09;14.55;;;7.60;;
34828;SDS011;21042;47.620;12.188;2023-03-12T07:48:36;13.27;;;7.13;;
34828;SDS011;21042;47.620;12.188;2023-03-12T07:51:03;14.60;;;8.15;;
34828;SDS011;21042;47.620;12.188;2023-03-12T07:53:30;15.88;;;7.85;;
34828;SDS011;21042;47.620;12.188;2023-03-12T07:55:57;16.10;;;8.45;;
34828;SDS011;21042;47.620;12.188;2023-03-12T07:58:24;21.90;;;7.78;;
34828;SDS011;21042;47.620;12.188;2023-03-12T08:00:53;19.35;;;7.88;;
34828;SDS011;21042;47.620;12.188;2023-03-12T08:03:21;14.80;;;7.63;;
34828;SDS011;21042;47.620;12.188;2023-03-12T08:05:58;20.02;;;8.93;;
34828;SDS011;21042;47.620;12.188;2023-03-12T08:08:26;15.77;;;9.32;;
34828;SDS011;21042;47.620;12.188;2023-03-12T08:10:54;17.98;;;10.18;;
34828;SDS011;21042;47.620;12.188;2023-03-12T08:13:21;16.45;;;9.40;;
34828;SDS011;21042;47.620;12.188;2023-03-12T08:15:50;16.27;;;9.35;;
34828;SDS011;21042;47.620;12.188;2023-03-12T08:18:18;18.83;;;9.32;;
34828;SDS011;21042;47.620;12.188;2023-03-12T08:20:48;30.10;;;10.93;;
34828;SDS011;21042;47.620;12.188;2023-03-12T08:23:17;22.50;;;11.52;;
34828;SDS011;21042;47.620;12.188;2023-03-12T08:25:47;19.85;;;10.52;;
34828;SDS011;21042;47.620;12.188;2023-03-12T08:28:15;22.55;;;10.88;;
34828;SDS011;21042;47.620;12.188;2023-03-12T08:30:46;22.80;;;9.85;;
34828;SDS011;21042;47.620;12.188;2023-03-12T08:33:14;23.70;;;9.15;;
34828;SDS011;21042;47.620;12.188;2023-03-12T08:35:41;17.63;;;9.38;;
34828;SDS011;21042;47.620;12.188;2023-03-12T08:38:08;18.52;;;9.23;;
34828;SDS011;21042;47.620;12.188;2023-03-12T08:40:35;21.08;;;9.55;;
34828;SDS011;21042;47.620;12.188;2023-03-12T08:43:03;41.60;;;16.58;;
34828;SDS011;21042;47.620;12.188;2023-03-12T08:45:29;23.30;;;13.15;;
34828;SDS011;21042;47.620;12.188;2023-03-12T08:47:56;22.17;;;12.88;;
34828;SDS011;21042;47.620;12.188;2023-03-12T08:50:23;20.00;;;10.93;;
34828;SDS011;21042;47.620;12.188;2023-03-12T08:52:54;26.35;;;12.85;;
34828;SDS011;21042;47.620;12.188;2023-03-12T08:55:21;21.98;;;12.05;;
34828;SDS011;21042;47.620;12.188;2023-03-12T08:57:48;15.55;;;8.00;;
34828;SDS011;21042;47.620;12.188;2023-03-12T09:00:14;18.70;;;8.23;;
34828;SDS011;21042;47.620;12.188;2023-03-12T09:02:43;20.67;;;9.38;;
34828;SDS011;21042;47.620;12.188;2023-03-12T09:05:11;17.63;;;9.43;;
34828;SDS011;21042;47.620;12.188;2023-03-12T09:07:39;23.45;;;10.27;;
34828;SDS011;21042;47.620;12.188;2023-03-12T09:10:06;17.70;;;9.55;;
34828;SDS011;21042;47.620;12.188;2023-03-12T09:12:33;19.98;;;9.77;;
34828;SDS011;21042;47.620;12.188;2023-03-12T09:15:00;19.83;;;10.93;;
34828;SDS011;21042;47.620;12.188;2023-03-12T09:17:29;18.00;;;9.63;;
34828;SDS011;21042;47.620;12.188;2023-03-12T09:19:55;19.42;;;10.57;;
34828;SDS011;21042;47.620;12.188;2023-03-12T09:22:22;22.45;;;10.50;;
34828;SDS011;21042;47.620;12.188;2023-03-12T09:24:49;18.65;;;11.25;;
34828;SDS011;21042;47.620;12.188;2023-03-12T09:27:16;21.70;;;10.93;;
34828;SDS011;21042;47.620;12.188;2023-03-12T09:29:42;19.40;;;10.73;;
34828;SDS011;21042;47.620;12.188;2023-03-12T09:32:24;21.05;;;11.27;;
34828;SDS011;21042;47.620;12.188;2023-03-12T09:34:52;17.83;;;11.05;;
34828;SDS011;21042;47.620;12.188;2023-03-12T09:37:19;24.23;;;12.40;;
34828;SDS011;21042;47.620;12.188;2023-03-12T09:39:49;19.13;;;10.15;;
34828;SDS011;21042;47.620;12.188;2023-03-12T09:42:21;18.17;;;10.18;;
34828;SDS011;21042;47.620;12.188;2023-03-12T09:45:20;15.90;;;9.60;;
34828;SDS011;21042;47.620;12.188;2023-03-12T09:47:50;20.27;;;9.57;;
34828;SDS011;21042;47.620;12.188;2023-03-12T09:53:00;15.77;;;9.20;;
34828;SDS011;21042;47.620;12.188;2023-03-12T09:55:36;16.65;;;10.07;;
34828;SDS011;21042;47.620;12.188;2023-03-12T09:58:09;14.50;;;9.05;;
34828;SDS011;21042;47.620;12.188;2023-03-12T10:07:30;15.73;;;8.60;;
34828;SDS011;21042;47.620;12.188;2023-03-12T10:12:51;13.90;;;7.25;;
34828;SDS011;21042;47.620;12.188;2023-03-12T10:15:42;20.30;;;7.72;;
34828;SDS011;21042;47.620;12.188;2023-03-12T10:18:48;12.15;;;7.65;;
34828;SDS011;21042;47.620;12.188;2023-03-12T10:24:33;15.20;;;8.57;;
34828;SDS011;21042;47.620;12.188;2023-03-12T10:27:11;13.05;;;8.02;;
34828;SDS011;21042;47.620;12.188;2023-03-12T10:29:42;13.07;;;8.35;;
34828;SDS011;21042;47.620;12.188;2023-03-12T10:32:13;15.75;;;9.05;;
34828;SDS011;21042;47.620;12.188;2023-03-12T10:35:01;13.52;;;7.53;;
34828;SDS011;21042;47.620;12.188;2023-03-12T10:37:39;15.88;;;9.30;;
34828;SDS011;21042;47.620;12.188;2023-03-12T10:40:13;15.30;;;8.38;;
34828;SDS011;21042;47.620;12.188;2023-03-12T10:42:42;11.38;;;7.00;;
34828;SDS011;21042;47.620;12.188;2023-03-12T10:47:37;14.40;;;8.02;;
34828;SDS011;21042;47.620;12.188;2023-03-12T10:50:13;13.23;;;7.15;;
34828;SDS011;21042;47.620;12.188;2023-03-12T10:52:40;13.27;;;6.88;;
34828;SDS011;21042;47.620;12.188;2023-03-12T10:55:12;12.18;;;8.02;;
34828;SDS011;21042;47.620;12.188;2023-03-12T10:57:39;17.85;;;9.40;;
34828;SDS011;21042;47.620;12.188;2023-03-12T11:00:08;19.55;;;10.32;;
34828;SDS011;21042;47.620;12.188;2023-03-12T11:02:38;20.60;;;12.90;;
34828;SDS011;21042;47.620;12.188;2023-03-12T11:05:45;23.70;;;14.10;;
34828;SDS011;21042;47.620;12.188;2023-03-12T11:08:24;15.23;;;8.93;;
34828;SDS011;21042;47.620;12.188;2023-03-12T11:10:53;13.13;;;8.25;;
34828;SDS011;21042;47.620;12.188;2023-03-12T11:15:50;13.60;;;8.50;;
34828;SDS011;21042;47.620;12.188;2023-03-12T11:18:25;13.48;;;8.25;;
34828;SDS011;21042;47.620;12.188;2023-03-12T11:20:54;13.35;;;8.20;;
34828;SDS011;21042;47.620;12.188;2023-03-12T11:23:27;12.43;;;7.38;;
34828;SDS011;21042;47.620;12.188;2023-03-12T11:25:59;11.30;;;6.68;;
34828;SDS011;21042;47.620;12.188;2023-03-12T11:28:37;14.82;;;8.10;;
34828;SDS011;21042;47.620;12.188;2023-03-12T11:31:12;12.95;;;7.22;;
34828;SDS011;21042;47.620;12.188;2023-03-12T11:33:45;13.25;;;7.35;;
34828;SDS011;21042;47.620;12.188;2023-03-12T11:36:21;15.80;;;8.35;;
34828;SDS011;21042;47.620;12.188;2023-03-12T11:39:09;13.63;;;8.70;;
34828;SDS011;21042;47.620;12.188;2023-03-12T11:44:54;13.88;;;8.35;;
34828;SDS011;21042;47.620;12.188;2023-03-12T11:50:34;15.00;;;8.23;;
34828;SDS011;21042;47.620;12.188;2023-03-12T11:53:11;14.90;;;7.65;;
34828;SDS011;21042;47.620;12.188;2023-03-12T12:09:36;14.35;;;8.75;;
34828;SDS011;21042;47.620;12.188;2023-03-12T12:17:51;25.33;;;11.27;;
34828;SDS011;21042;47.620;12.188;2023-03-12T12:25:48;14.50;;;8.23;;
34828;SDS011;21042;47.620;12.188;2023-03-12T12:28:29;16.67;;;8.45;;
34828;SDS011;21042;47.620;12.188;2023-03-12T12:36:33;15.18;;;7.93;;
34828;SDS011;21042;47.620;12.188;2023-03-12T12:39:07;12.48;;;6.47;;
34828;SDS011;21042;47.620;12.188;2023-03-12T12:41:41;13.15;;;8.27;;
34828;SDS011;21042;47.620;12.188;2023-03-12T12:44:14;14.18;;;8.43;;
34828;SDS011;21042;47.620;12.188;2023-03-12T12:46:49;13.05;;;8.07;;
34828;SDS011;21042;47.620;12.188;2023-03-12T12:51:51;11.88;;;7.78;;
34828;SDS011;21042;47.620;12.188;2023-03-12T12:56:53;11.20;;;7.05;;
34828;SDS011;21042;47.620;12.188;2023-03-12T12:59:33;11.45;;;6.55;;
34828;SDS011;21042;47.620;12.188;2023-03-12T13:02:12;9.80;;;6.80;;
34828;SDS011;21042;47.620;12.188;2023-03-12T13:04:44;9.93;;;5.93;;
34828;SDS011;21042;47.620;12.188;2023-03-12T13:09:43;13.63;;;6.00;;
34828;SDS011;21042;47.620;12.188;2023-03-12T13:12:29;9.40;;;6.28;;
34828;SDS011;21042;47.620;12.188;2023-03-12T13:14:58;12.93;;;6.75;;
34828;SDS011;21042;47.620;12.188;2023-03-12T13:17:32;9.32;;;5.88;;
34828;SDS011;21042;47.620;12.188;2023-03-12T13:20:17;8.55;;;5.38;;
34828;SDS011;21042;47.620;12.188;2023-03-12T13:22:52;11.37;;;6.57;;
34828;SDS011;21042;47.620;12.188;2023-03-12T13:26:24;20.55;;;11.02;;
34828;SDS011;21042;47.620;12.188;2023-03-12T13:34:28;14.18;;;9.25;;
34828;SDS011;21042;47.620;12.188;2023-03-12T13:36:58;24.15;;;14.27;;
34828;SDS011;21042;47.620;12.188;2023-03-12T13:39:35;17.90;;;10.10;;
34828;SDS011;21042;47.620;12.188;2023-03-12T13:44:48;16.33;;;9.63;;
34828;SDS011;21042;47.620;12.188;2023-03-12T13:47:22;11.82;;;8.38;;
34828;SDS011;21042;47.620;12.188;2023-03-12T13:52:29;17.33;;;9.90;;
34828;SDS011;21042;47.620;12.188;2023-03-12T13:55:00;21.10;;;11.25;;
34828;SDS011;21042;47.620;12.188;2023-03-12T13:57:37;16.60;;;9.63;;
34828;SDS011;21042;47.620;12.188;2023-03-12T14:00:22;19.00;;;10.90;;
34828;SDS011;21042;47.620;12.188;2023-03-12T14:03:18;16.77;;;10.48;;
34828;SDS011;21042;47.620;12.188;2023-03-12T14:05:54;13.50;;;8.77;;
34828;SDS011;21042;47.620;12.188;2023-03-12T14:08:24;18.15;;;10.15;;
34828;SDS011;21042;47.620;12.188;2023-03-12T14:14:40;12.63;;;8.20;;
34828;SDS011;21042;47.620;12.188;2023-03-12T14:17:30;12.98;;;8.23;;
34828;SDS011;21042;47.620;12.188;2023-03-12T14:22:33;15.00;;;9.45;;
34828;SDS011;21042;47.620;12.188;2023-03-12T14:25:15;15.07;;;9.13;;
34828;SDS011;21042;47.620;12.188;2023-03-12T14:27:49;13.87;;;9.07;;
34828;SDS011;21042;47.620;12.188;2023-03-12T14:32:45;20.15;;;9.23;;
34828;SDS011;21042;47.620;12.188;2023-03-12T14:43:26;11.82;;;7.93;;
34828;SDS011;21042;47.620;12.188;2023-03-12T14:46:03;12.20;;;7.72;;
34828;SDS011;21042;47.620;12.188;2023-03-12T14:48:33;17.10;;;9.55;;
34828;SDS011;21042;47.620;12.188;2023-03-12T14:51:03;35.72;;;15.18;;
34828;SDS011;21042;47.620;12.188;2023-03-12T14:53:33;16.35;;;9.45;;
34828;SDS011;21042;47.620;12.188;2023-03-12T14:56:20;15.27;;;7.97;;
34828;SDS011;21042;47.620;12.188;2023-03-12T14:58:50;17.77;;;9.73;;
34828;SDS011;21042;47.620;12.188;2023-03-12T15:01:19;15.13;;;8.13;;
34828;SDS011;21042;47.620;12.188;2023-03-12T15:03:49;13.55;;;8.05;;
34828;SDS011;21042;47.620;12.188;2023-03-12T15:06:32;14.65;;;8.57;;
34828;SDS011;21042;47.620;12.188;2023-03-12T15:09:03;16.92;;;10.30;;
34828;SDS011;21042;47.620;12.188;2023-03-12T15:11:33;16.77;;;8.68;;
34828;SDS011;21042;47.620;12.188;2023-03-12T15:14:03;19.05;;;10.27;;
34828;SDS011;21042;47.620;12.188;2023-03-12T15:16:32;20.13;;;11.82;;
34828;SDS011;21042;47.620;12.188;2023-03-12T15:19:01;22.25;;;11.68;;
34828;SDS011;21042;47.620;12.188;2023-03-12T15:21:31;15.15;;;8.93;;
34828;SDS011;21042;47.620;12.188;2023-03-12T15:23:59;14.40;;;9.40;;
34828;SDS011;21042;47.620;12.188;2023-03-12T15:26:28;14.30;;;8.55;;
34828;SDS011;21042;47.620;12.188;2023-03-12T15:28:59;14.32;;;8.80;;
34828;SDS011;21042;47.620;12.188;2023-03-12T15:31:42;14.38;;;7.90;;
34828;SDS011;21042;47.620;12.188;2023-03-12T15:34:11;20.52;;;11.48;;
34828;SDS011;21042;47.620;12.188;2023-03-12T15:36:46;16.48;;;10.80;;
34828;SDS011;21042;47.620;12.188;2023-03-12T15:39:20;12.75;;;8.85;;
34828;SDS011;21042;47.620;12.188;2023-03-12T15:42:00;16.33;;;9.00;;
34828;SDS011;21042;47.620;12.188;2023-03-12T15:44:35;14.05;;;9.07;;
34828;SDS011;21042;47.620;12.188;2023-03-12T15:47:13;21.80;;;11.15;;
34828;SDS011;21042;47.620;12.188;2023-03-12T15:49:43;16.48;;;10.65;;
34828;SDS011;21042;47.620;12.188;2023-03-12T15:57:46;21.80;;;11.32;;
34828;SDS011;21042;47.620;12.188;2023-03-12T16:00:16;18.23;;;10.07;;
34828;SDS011;21042;47.620;12.188;2023-03-12T16:02:55;14.48;;;7.72;;
34828;SDS011;21042;47.620;12.188;2023-03-12T16:05:32;14.02;;;7.97;;
34828;SDS011;21042;47.620;12.188;2023-03-12T16:10:42;18.00;;;11.95;;
34828;SDS011;21042;47.620;12.188;2023-03-12T16:13:15;30.55;;;20.00;;
34828;SDS011;21042;47.620;12.188;2023-03-12T16:15:46;17.70;;;10.45;;
34828;SDS011;21042;47.620;12.188;2023-03-12T16:18:18;21.95;;;11.43;;
34828;SDS011;21042;47.620;12.188;2023-03-12T16:20:46;16.63;;;9.40;;
34828;SDS011;21042;47.620;12.188;2023-03-12T16:23:14;15.38;;;9.73;;
34828;SDS011;21042;47.620;12.188;2023-03-12T16:25:47;15.40;;;9.45;;
34828;SDS011;21042;47.620;12.188;2023-03-12T16:28:16;14.40;;;9.60;;
34828;SDS011;21042;47.620;12.188;2023-03-12T16:30:45;18.95;;;9.63;;
34828;SDS011;21042;47.620;12.188;2023-03-12T16:33:16;16.40;;;9.18;;
34828;SDS011;21042;47.620;12.188;2023-03-12T16:35:44;19.23;;;10.18;;
34828;SDS011;21042;47.620;12.188;2023-03-12T16:38:11;15.73;;;9.43;;
34828;SDS011;21042;47.620;12.188;2023-03-12T16:40:39;26.67;;;9.63;;
34828;SDS011;21042;47.620;12.188;2023-03-12T16:43:22;15.20;;;9.85;;
34828;SDS011;21042;47.620;12.188;2023-03-12T16:45:51;20.60;;;9.65;;
34828;SDS011;21042;47.620;12.188;2023-03-12T16:48:20;15.25;;;9.20;;